Terminal Aerodrome Forecast
Issued by NWS

Home | Current Version | Previous Version | Text Only | Print | Product List | Glossary On
Versions: 1 2 3 4 5 6 7 8 9 10 11 12 13 14 15 16 17 18 19 20 21 22 23
000
FTUS42 KMLB 270540
TAFISM
TAF
KISM 270540Z 2706/2806 31016G21KT P6SM VCSH SCT022 OVC090
      TEMPO 2707/2711 -SHRA SCT020 BKN035
     FM271300 22014G20KT P6SM VCSH SCT025 OVC060
     FM271600 23015G25KT 5SM SHRA VCTS BKN020CB OVC050
     FM271900 25015KT P6SM VCSH BKN020 OVC050
     FM280300 29013KT P6SM SCT035
      AMD NOT SKED TIL 271200=

USA.gov is the U.S. government's official web portal to all federal, state and local government web resources and services.